createdAt,value
2022-11-15T00:00:57.466Z,97802.69
2022-11-15T00:03:28.870Z,97808.22
2022-11-15T00:05:55.842Z,97801.50
2022-11-15T00:08:22.403Z,97808.25
2022-11-15T00:11:00.249Z,97813.78
2022-11-15T00:13:27.149Z,97809.81
2022-11-15T00:15:53.864Z,97811.41
2022-11-15T00:18:20.462Z,97803.50
2022-11-15T00:20:47.055Z,97804.66
2022-11-15T00:23:13.554Z,97797.53
2022-11-15T00:25:40.271Z,97805.84
2022-11-15T00:28:06.921Z,97815.38
2022-11-15T00:30:33.795Z,97809.81
2022-11-15T00:33:04.803Z,97812.19
2022-11-15T00:35:35.333Z,97810.59
2022-11-15T00:38:02.871Z,97813.00
2022-11-15T00:40:29.718Z,97817.75
2022-11-15T00:42:56.506Z,97808.59
2022-11-15T00:45:23.368Z,97806.63
2022-11-15T00:47:49.888Z,97805.03
2022-11-15T00:50:16.606Z,97803.88
2022-11-15T00:52:43.456Z,97803.88
2022-11-15T00:55:17.629Z,97804.25
2022-11-15T00:57:44.275Z,97806.63
2022-11-15T01:00:11.564Z,97808.19
2022-11-15T01:02:38.130Z,97815.31
2022-11-15T01:05:05.332Z,97794.72
2022-11-15T01:07:31.928Z,97799.09
2022-11-15T01:09:58.481Z,97796.72
2022-11-15T01:12:24.999Z,97801.06
2022-11-15T01:14:51.510Z,97803.44
2022-11-15T01:17:18.066Z,97799.06
2022-11-15T01:19:44.822Z,97801.84
2022-11-15T01:22:11.374Z,97801.84
2022-11-15T01:24:37.951Z,97804.22
2022-11-15T01:27:04.522Z,97808.19
2022-11-15T01:29:31.031Z,97803.44
2022-11-15T01:31:57.498Z,97805.81
2022-11-15T01:34:24.009Z,97803.06
2022-11-15T01:36:50.627Z,97801.47
2022-11-15T01:39:17.789Z,97806.63
2022-11-15T01:41:44.878Z,97803.44
2022-11-15T01:44:29.430Z,97810.19
2022-11-15T01:46:55.985Z,97808.97
2022-11-15T01:49:24.670Z,97809.75
2022-11-15T01:51:51.602Z,97804.22
2022-11-15T01:54:21.927Z,97799.44
2022-11-15T01:56:53.081Z,97805.78
2022-11-15T01:59:20.568Z,97804.97
2022-11-15T02:01:47.420Z,97811.28
2022-11-15T02:04:29.536Z,97810.88
2022-11-15T02:06:56.107Z,97806.53
2022-11-15T02:09:22.657Z,97802.56
2022-11-15T02:11:51.518Z,97804.16
2022-11-15T02:14:21.002Z,97797.81
2022-11-15T02:16:47.484Z,97791.47
2022-11-15T02:19:32.453Z,97795.44
2022-11-15T02:22:17.772Z,97792.69
2022-11-15T02:25:11.059Z,97789.53
2022-11-15T02:27:40.405Z,97792.28
2022-11-15T02:30:37.398Z,97795.47
2022-11-15T02:33:28.230Z,97804.59
2022-11-15T02:36:01.983Z,97803.00
2022-11-15T02:38:51.561Z,97801.00
2022-11-15T02:41:25.055Z,97799.44
2022-11-15T02:44:05.949Z,97804.94
2022-11-15T02:47:11.722Z,97800.53
2022-11-15T02:49:38.719Z,97789.84
2022-11-15T02:52:05.415Z,97795.38
2022-11-15T02:54:33.766Z,97800.91
2022-11-15T02:57:08.194Z,97792.94
2022-11-15T02:59:53.385Z,97788.97
2022-11-15T03:02:38.715Z,97790.19
2022-11-15T03:05:26.290Z,97800.47
2022-11-15T03:08:04.704Z,97793.75
2022-11-15T03:10:38.538Z,97790.97
2022-11-15T03:13:14.252Z,97796.13
2022-11-15T03:16:22.494Z,97789.78
2022-11-15T03:18:57.866Z,97796.13
2022-11-15T03:21:26.097Z,97797.72
2022-11-15T03:23:56.183Z,97794.16
2022-11-15T03:26:25.731Z,97791.78
2022-11-15T03:28:58.701Z,97803.25
2022-11-15T03:31:50.530Z,97800.09
2022-11-15T03:34:47.026Z,97793.41
2022-11-15T03:37:16.456Z,97793.81
2022-11-15T03:39:44.284Z,97793.00
2022-11-15T03:42:32.544Z,97791.41
2022-11-15T03:45:13.201Z,97783.88
2022-11-15T03:47:59.876Z,97787.41
2022-11-15T03:50:27.668Z,97775.13
2022-11-15T03:52:56.012Z,97773.16
2022-11-15T03:55:22.925Z,97765.25
2022-11-15T03:57:54.103Z,97768.06
2022-11-15T04:00:20.702Z,97766.06
2022-11-15T04:02:47.238Z,97761.31
2022-11-15T04:05:13.774Z,97753.38
2022-11-15T04:07:40.405Z,97768.03
2022-11-15T04:10:07.896Z,97758.94
2022-11-15T04:12:37.056Z,97766.88
2022-11-15T04:15:09.285Z,97761.34
2022-11-15T04:17:40.095Z,97758.91
2022-11-15T04:20:40.539Z,97755.69
2022-11-15T04:23:34.330Z,97751.31
2022-11-15T04:26:05.409Z,97748.50
2022-11-15T04:28:32.075Z,97752.88
2022-11-15T04:30:58.563Z,97742.97
2022-11-15T04:33:25.107Z,97746.94
2022-11-15T04:36:10.183Z,97750.94
2022-11-15T04:38:38.369Z,97747.75
2022-11-15T04:41:05.039Z,97750.91
2022-11-15T04:43:32.154Z,97754.09
2022-11-15T04:45:58.987Z,97741.44
2022-11-15T04:48:25.517Z,97743.03
2022-11-15T04:50:52.021Z,97742.25
2022-11-15T04:53:18.540Z,97746.63
2022-11-15T04:55:47.937Z,97736.75
2022-11-15T04:58:14.573Z,97739.13
2022-11-15T05:00:41.225Z,97741.13
2022-11-15T05:03:28.372Z,97739.91
2022-11-15T05:05:55.338Z,97746.19
2022-11-15T05:08:21.906Z,97743.00
2022-11-15T05:10:48.840Z,97737.06
2022-11-15T05:13:15.408Z,97737.41
2022-11-15T05:15:41.943Z,97740.91
2022-11-15T05:18:08.529Z,97740.03
2022-11-15T05:20:35.080Z,97734.91
2022-11-15T05:23:01.595Z,97730.09
2022-11-15T05:25:28.304Z,97725.69
2022-11-15T05:27:55.086Z,97739.50
2022-11-15T05:30:21.594Z,97745.53
2022-11-15T05:32:48.709Z,97744.81
2022-11-15T05:35:33.525Z,97750.00
2022-11-15T05:38:00.183Z,97742.94
2022-11-15T05:40:28.567Z,97734.25
2022-11-15T05:42:55.240Z,97753.69
2022-11-15T05:45:26.761Z,97748.59
2022-11-15T05:47:57.923Z,97743.44
2022-11-15T05:50:24.719Z,97748.63
2022-11-15T05:52:52.407Z,97751.41
2022-11-15T05:55:19.141Z,97737.16
2022-11-15T05:57:45.983Z,97746.69
2022-11-15T06:00:13.342Z,97752.66
2022-11-15T06:02:39.763Z,97759.00
2022-11-15T06:05:06.548Z,97750.69
2022-11-15T06:07:33.192Z,97747.53
2022-11-15T06:10:00.048Z,97746.31
2022-11-15T06:12:26.610Z,97745.53
2022-11-15T06:14:53.107Z,97745.53
2022-11-15T06:17:19.604Z,97748.69
2022-11-15T06:19:46.138Z,97745.91
2022-11-15T06:22:12.664Z,97751.47
2022-11-15T06:24:39.211Z,97751.06
2022-11-15T06:27:05.784Z,97757.00
2022-11-15T06:29:32.267Z,97749.50
2022-11-15T06:31:58.777Z,97750.69
2022-11-15T06:34:25.524Z,97758.22
2022-11-15T06:36:52.081Z,97759.81
2022-11-15T06:39:18.603Z,97761.44
2022-11-15T06:41:45.156Z,97762.22
2022-11-15T06:44:11.699Z,97765.00
2022-11-15T06:46:38.252Z,97765.41
2022-11-15T06:49:09.357Z,97761.88
2022-11-15T06:51:36.470Z,97762.25
2022-11-15T06:54:03.152Z,97752.72
2022-11-15T06:56:29.723Z,97760.66
2022-11-15T06:58:56.727Z,97764.63
2022-11-15T07:01:23.490Z,97759.88
2022-11-15T07:03:50.044Z,97759.06
2022-11-15T07:06:16.611Z,97753.91
2022-11-15T07:08:44.260Z,97760.63
2022-11-15T07:11:10.783Z,97759.03
2022-11-15T07:13:38.350Z,97759.81
2022-11-15T07:16:07.049Z,97760.59
2022-11-15T07:18:37.863Z,97758.19
2022-11-15T07:21:05.673Z,97759.00
2022-11-15T07:23:33.364Z,97756.59
2022-11-15T07:26:01.117Z,97756.56
2022-11-15T07:28:28.288Z,97749.38
2022-11-15T07:30:55.696Z,97739.81
2022-11-15T07:33:22.677Z,97745.72
2022-11-15T07:35:52.118Z,97749.59
2022-11-15T07:38:21.531Z,97738.84
2022-11-15T07:40:48.588Z,97741.88
2022-11-15T07:43:15.209Z,97747.34
2022-11-15T07:45:46.341Z,97743.66
2022-11-15T07:48:12.845Z,97741.59
2022-11-15T07:50:42.659Z,97746.63
2022-11-15T07:53:10.524Z,97750.94
2022-11-15T07:55:37.480Z,97749.78
2022-11-15T07:58:06.176Z,97751.00
2022-11-15T08:00:33.913Z,97751.78
2022-11-15T08:03:12.023Z,97748.25
2022-11-15T08:05:40.282Z,97755.06
2022-11-15T08:08:08.354Z,97750.25
2022-11-15T08:10:40.296Z,97747.41
2022-11-15T08:13:12.046Z,97748.06
2022-11-15T08:15:39.299Z,97740.56
2022-11-15T08:18:16.512Z,97739.34
2022-11-15T08:20:43.530Z,97731.47
2022-11-15T08:23:11.476Z,97738.53
2022-11-15T08:25:38.090Z,97742.91
2022-11-15T08:28:06.902Z,97742.88
2022-11-15T08:30:43.097Z,97743.69
2022-11-15T08:33:14.325Z,97741.25
2022-11-15T08:35:42.188Z,97740.03
2022-11-15T08:38:09.423Z,97737.56
2022-11-15T08:40:36.918Z,97719.22
2022-11-15T08:43:03.972Z,97721.84
2022-11-15T08:45:31.186Z,97719.44
2022-11-15T08:47:57.796Z,97721.78
2022-11-15T08:50:24.455Z,97717.34
2022-11-15T08:52:51.080Z,97711.19
2022-11-15T08:55:17.902Z,97711.78
2022-11-15T08:57:44.725Z,97712.91
2022-11-15T09:00:12.847Z,97700.50
2022-11-15T09:02:40.237Z,97698.84
2022-11-15T09:05:07.156Z,97706.91
2022-11-15T09:07:33.952Z,97693.66
2022-11-15T09:10:01.088Z,97683.16
2022-11-15T09:12:27.602Z,97686.88
2022-11-15T09:14:54.193Z,97682.63
2022-11-15T09:17:24.745Z,97674.63
2022-11-15T09:19:51.921Z,97667.69
2022-11-15T09:22:18.873Z,97665.56
2022-11-15T09:24:45.538Z,97667.03
2022-11-15T09:29:56.472Z,97656.91
2022-11-15T09:32:26.025Z,97640.59
2022-11-15T09:34:52.660Z,97633.94
2022-11-15T09:37:19.169Z,97627.97
2022-11-15T09:39:45.682Z,97627.78
2022-11-15T09:42:41.499Z,97615.81
2022-11-15T09:45:16.896Z,97608.38
2022-11-15T09:48:04.652Z,97604.94
2022-11-15T09:50:47.956Z,97613.00
2022-11-15T09:53:50.765Z,97602.38
2022-11-15T09:56:31.874Z,97597.63
2022-11-15T09:59:07.199Z,97588.13
2022-11-15T10:01:55.810Z,97581.97
2022-11-15T10:04:24.791Z,97578.38
2022-11-15T10:07:05.371Z,97580.63
2022-11-15T10:09:50.267Z,97571.53
2022-11-15T10:12:17.453Z,97566.25
2022-11-15T10:14:50.305Z,97554.41
2022-11-15T10:17:28.762Z,97561.94
2022-11-15T10:20:20.030Z,97548.16
2022-11-15T10:23:01.166Z,97543.75
2022-11-15T10:25:33.210Z,97541.53
2022-11-15T10:28:17.476Z,97525.09
2022-11-15T10:30:50.605Z,97522.63
2022-11-15T10:33:37.896Z,97516.09
2022-11-15T10:36:10.636Z,97505.56
2022-11-15T10:38:49.201Z,97498.06
2022-11-15T10:41:18.265Z,97486.78
2022-11-15T10:43:45.762Z,97489.91
2022-11-15T10:46:45.078Z,97476.81
2022-11-15T10:49:17.862Z,97476.84
2022-11-15T10:51:52.906Z,97469.56
2022-11-15T10:54:44.663Z,97454.06
2022-11-15T10:57:17.586Z,97453.03
2022-11-15T10:59:50.864Z,97453.38
2022-11-15T11:02:36.963Z,97439.97
2022-11-15T11:05:06.786Z,97445.03
2022-11-15T11:07:35.738Z,97428.09
2022-11-15T11:10:49.191Z,97422.44
2022-11-15T11:13:30.297Z,97425.38
2022-11-15T11:15:56.748Z,97417.94
2022-11-15T11:18:33.445Z,97417.66
2022-11-15T11:21:07.919Z,97406.69
2022-11-15T11:23:55.472Z,97405.75
2022-11-15T11:26:41.971Z,97401.81
2022-11-15T11:29:33.038Z,97386.72
2022-11-15T11:32:20.647Z,97386.19
2022-11-15T11:35:04.415Z,97375.72
2022-11-15T11:38:07.810Z,97377.09
2022-11-15T11:40:59.079Z,97362.56
2022-11-15T11:43:40.765Z,97365.03
2022-11-15T11:46:25.422Z,97352.47
2022-11-15T11:49:05.138Z,97348.91
2022-11-15T11:51:40.878Z,97337.91
2022-11-15T11:54:29.307Z,97349.63
2022-11-15T11:56:56.674Z,97334.59
2022-11-15T11:59:32.324Z,97340.72
2022-11-15T12:02:23.798Z,97326.81
2022-11-15T12:04:56.185Z,97315.22
2022-11-15T12:07:28.864Z,97315.22
2022-11-15T12:10:02.540Z,97309.91
2022-11-15T12:12:43.226Z,97295.13
2022-11-15T12:15:09.749Z,97299.56
2022-11-15T12:17:38.059Z,97282.09
2022-11-15T12:20:15.764Z,97274.09
2022-11-15T12:22:48.427Z,97274.09
2022-11-15T12:25:30.465Z,97257.53
2022-11-15T12:28:02.755Z,97254.41
2022-11-15T12:30:52.757Z,97256.94
2022-11-15T12:33:31.222Z,97251.56
2022-11-15T12:36:22.360Z,97261.78
2022-11-15T12:38:48.950Z,97245.41
2022-11-15T12:41:20.366Z,97244.03
2022-11-15T12:43:49.543Z,97233.31
2022-11-15T12:46:22.501Z,97237.69
2022-11-15T12:48:52.698Z,97236.59
2022-11-15T12:51:23.149Z,97232.13
2022-11-15T12:53:49.716Z,97227.63
2022-11-15T12:56:16.150Z,97223.69
2022-11-15T12:59:06.245Z,97224.28
2022-11-15T13:01:36.146Z,97215.66
2022-11-15T13:04:29.648Z,97206.03
2022-11-15T13:06:59.692Z,97211.59
2022-11-15T13:09:35.217Z,97211.88
2022-11-15T13:12:15.874Z,97201.50
2022-11-15T13:15:00.008Z,97195.28
2022-11-15T13:17:40.677Z,97198.91
2022-11-15T13:20:07.155Z,97210.28
2022-11-15T13:23:00.246Z,97194.50
2022-11-15T13:25:45.188Z,97189.63
2022-11-15T13:28:37.824Z,97188.09
2022-11-15T13:31:28.432Z,97172.47
2022-11-15T13:33:59.136Z,97180.97
2022-11-15T13:36:29.795Z,97183.25
2022-11-15T13:38:58.407Z,97179.56
2022-11-15T13:41:27.967Z,97189.75
2022-11-15T13:43:56.150Z,97186.84
2022-11-15T13:46:34.042Z,97194.84
2022-11-15T13:49:06.890Z,97184.63
2022-11-15T13:51:53.249Z,97194.34
2022-11-15T13:54:28.262Z,97195.78
2022-11-15T13:56:59.730Z,97185.06
2022-11-15T13:59:29.177Z,97188.69
2022-11-15T14:02:00.449Z,97185.56
2022-11-15T14:04:30.824Z,97188.28
2022-11-15T14:06:59.735Z,97192.19
2022-11-15T14:09:38.030Z,97188.06
2022-11-15T14:12:24.600Z,97189.84
2022-11-15T14:14:51.292Z,97198.63
2022-11-15T14:17:31.504Z,97190.81
2022-11-15T14:19:59.079Z,97195.84
2022-11-15T14:22:27.063Z,97196.00
2022-11-15T14:25:17.651Z,97208.03
2022-11-15T14:27:46.260Z,97203.47
2022-11-15T14:30:18.795Z,97196.63
2022-11-15T14:32:48.715Z,97204.34
2022-11-15T14:35:19.236Z,97205.47
2022-11-15T14:37:46.542Z,97206.97
2022-11-15T14:40:15.988Z,97210.63
2022-11-15T14:42:43.519Z,97217.81
2022-11-15T14:45:17.507Z,97213.66
2022-11-15T14:47:44.765Z,97207.63
2022-11-15T14:50:20.297Z,97206.06
2022-11-15T14:52:48.143Z,97219.25
2022-11-15T14:55:28.596Z,97210.03
2022-11-15T14:57:56.302Z,97206.31
2022-11-15T15:00:23.460Z,97210.19
2022-11-15T15:02:53.639Z,97203.63
2022-11-15T15:05:31.479Z,97197.56
2022-11-15T15:07:58.370Z,97204.41
2022-11-15T15:10:40.128Z,97201.47
2022-11-15T15:13:32.084Z,97198.69
2022-11-15T15:15:58.646Z,97194.31
2022-11-15T15:18:25.185Z,97202.28
2022-11-15T15:21:01.074Z,97198.38
2022-11-15T15:23:30.252Z,97192.28
2022-11-15T15:25:56.971Z,97195.84
2022-11-15T15:28:23.637Z,97201.81
2022-11-15T15:30:50.792Z,97202.09
2022-11-15T15:33:17.457Z,97197.41
2022-11-15T15:35:45.115Z,97202.38
2022-11-15T15:38:16.400Z,97206.16
2022-11-15T15:40:43.050Z,97196.75
2022-11-15T15:43:10.242Z,97194.41
2022-11-15T15:45:41.275Z,97189.59
2022-11-15T15:48:13.718Z,97188.81
2022-11-15T15:50:40.660Z,97187.44
2022-11-15T15:53:09.094Z,97191.47
2022-11-15T15:55:35.961Z,97190.72
2022-11-15T15:58:02.514Z,97178.06
2022-11-15T16:00:29.600Z,97171.47
2022-11-15T16:02:56.369Z,97183.66
2022-11-15T16:05:23.412Z,97188.53
2022-11-15T16:07:50.119Z,97192.13
2022-11-15T16:10:19.628Z,97188.38
2022-11-15T16:12:47.518Z,97185.25
2022-11-15T16:15:14.093Z,97190.88
2022-11-15T16:17:49.419Z,97183.66
2022-11-15T16:20:24.300Z,97182.13
2022-11-15T16:22:50.881Z,97181.16
2022-11-15T16:25:17.414Z,97189.16
2022-11-15T16:27:45.982Z,97178.03
2022-11-15T16:30:17.841Z,97184.47
2022-11-15T16:32:44.642Z,97179.94
2022-11-15T16:35:16.423Z,97182.44
2022-11-15T16:37:44.970Z,97180.22
2022-11-15T16:40:25.999Z,97182.72
2022-11-15T16:42:52.572Z,97190.84
2022-11-15T16:45:19.184Z,97187.72
2022-11-15T16:47:45.711Z,97180.38
2022-11-15T16:50:27.688Z,97181.19
2022-11-15T16:52:56.134Z,97191.81
2022-11-15T16:55:25.575Z,97188.97
2022-11-15T16:57:52.632Z,97189.94
2022-11-15T17:00:20.500Z,97181.63
2022-11-15T17:02:49.107Z,97174.28
2022-11-15T17:05:20.261Z,97178.94
2022-11-15T17:07:54.184Z,97175.81
2022-11-15T17:10:23.353Z,97173.63
2022-11-15T17:12:50.513Z,97177.03
2022-11-15T17:15:17.302Z,97176.66
2022-11-15T17:17:44.941Z,97164.09
2022-11-15T17:20:15.725Z,97171.84
2022-11-15T17:22:42.449Z,97171.34
2022-11-15T17:25:09.749Z,97178.03
2022-11-15T17:27:36.490Z,97172.03
2022-11-15T17:30:03.597Z,97165.41
2022-11-15T17:32:30.086Z,97167.81
2022-11-15T17:34:56.583Z,97169.41
2022-11-15T17:37:23.230Z,97166.72
2022-11-15T17:39:49.792Z,97169.19
2022-11-15T17:42:16.358Z,97169.34
2022-11-15T17:44:42.921Z,97173.06
2022-11-15T17:47:09.459Z,97163.88
2022-11-15T17:49:39.458Z,97170.53
2022-11-15T17:52:06.283Z,97167.06
2022-11-15T17:54:32.896Z,97166.09
2022-11-15T17:56:59.450Z,97162.97
2022-11-15T17:59:26.045Z,97151.06
2022-11-15T18:01:54.065Z,97159.75
2022-11-15T18:04:21.130Z,97158.78
2022-11-15T18:06:47.781Z,97159.03
2022-11-15T18:09:14.371Z,97154.44
2022-11-15T18:11:43.185Z,97160.06
2022-11-15T18:14:15.648Z,97162.34
2022-11-15T18:16:42.802Z,97158.78
2022-11-15T18:19:13.248Z,97165.66
2022-11-15T18:21:57.294Z,97163.88
2022-11-15T18:24:29.792Z,97162.56
2022-11-15T18:26:57.255Z,97156.63
2022-11-15T18:29:24.860Z,97155.63
2022-11-15T18:31:55.809Z,97162.09
2022-11-15T18:34:23.989Z,97157.09
2022-11-15T18:36:53.923Z,97159.97
2022-11-15T18:39:20.773Z,97160.22
2022-11-15T18:41:47.989Z,97152.38
2022-11-15T18:44:15.364Z,97150.16
2022-11-15T18:46:42.978Z,97155.97
2022-11-15T18:49:10.872Z,97145.31
2022-11-15T18:51:37.993Z,97150.50
2022-11-15T18:54:04.892Z,97152.03
2022-11-15T18:56:32.645Z,97153.72
2022-11-15T18:59:02.037Z,97154.16
2022-11-15T19:01:33.871Z,97150.81
2022-11-15T19:04:11.621Z,97152.94
2022-11-15T19:06:40.774Z,97147.91
2022-11-15T19:09:08.661Z,97148.00
2022-11-15T19:11:39.356Z,97146.84
2022-11-15T19:14:08.561Z,97154.41
2022-11-15T19:16:38.127Z,97143.53
2022-11-15T19:19:07.275Z,97145.69
2022-11-15T19:21:34.614Z,97155.44
2022-11-15T19:24:01.553Z,97156.66
2022-11-15T19:26:29.447Z,97159.00
2022-11-15T19:28:58.480Z,97160.25
2022-11-15T19:31:26.509Z,97161.44
2022-11-15T19:33:53.943Z,97159.22
2022-11-15T19:36:21.899Z,97156.25
2022-11-15T19:38:48.887Z,97148.63
2022-11-15T19:41:20.688Z,97154.47
2022-11-15T19:43:48.176Z,97157.22
2022-11-15T19:46:15.432Z,97165.25
2022-11-15T19:48:42.076Z,97169.94
2022-11-15T19:51:12.093Z,97167.50
2022-11-15T19:53:39.288Z,97161.84
2022-11-15T19:56:08.351Z,97164.97
2022-11-15T19:58:34.988Z,97164.00
2022-11-15T20:01:05.719Z,97166.09
2022-11-15T20:03:33.629Z,97162.78
2022-11-15T20:06:05.153Z,97162.09
2022-11-15T20:08:32.505Z,97165.25
2022-11-15T20:11:00.109Z,97161.91
2022-11-15T20:13:27.142Z,97164.28
2022-11-15T20:15:53.941Z,97154.22
2022-11-15T20:18:21.619Z,97152.22
2022-11-15T20:20:48.750Z,97154.91
2022-11-15T20:23:15.729Z,97143.03
2022-11-15T20:25:46.576Z,97156.31
2022-11-15T20:28:31.358Z,97148.28
2022-11-15T20:31:00.231Z,97153.78
2022-11-15T20:33:27.698Z,97147.22
2022-11-15T20:35:54.478Z,97145.56
2022-11-15T20:38:21.819Z,97154.47
2022-11-15T20:40:49.928Z,97152.78
2022-11-15T20:43:19.210Z,97144.41
2022-11-15T20:45:47.660Z,97142.97
2022-11-15T20:48:14.947Z,97151.41
2022-11-15T20:50:43.846Z,97140.19
2022-11-15T20:53:13.851Z,97138.34
2022-11-15T20:55:41.693Z,97136.81
2022-11-15T20:58:09.733Z,97137.66
2022-11-15T21:00:37.355Z,97130.88
2022-11-15T21:03:06.992Z,97138.34
2022-11-15T21:05:41.887Z,97139.41
2022-11-15T21:08:09.761Z,97134.53
2022-11-15T21:10:55.528Z,97127.59
2022-11-15T21:13:22.658Z,97133.09
2022-11-15T21:15:49.329Z,97126.97
2022-11-15T21:18:16.369Z,97129.59
2022-11-15T21:20:43.282Z,97135.75
2022-11-15T21:23:10.243Z,97131.22
2022-11-15T21:25:36.718Z,97129.53
2022-11-15T21:28:03.494Z,97131.44
2022-11-15T21:30:30.385Z,97126.16
2022-11-15T21:32:56.979Z,97132.53
2022-11-15T21:35:23.905Z,97129.19
2022-11-15T21:37:56.110Z,97124.50
2022-11-15T21:40:23.817Z,97113.50
2022-11-15T21:42:50.654Z,97115.78
2022-11-15T21:45:17.233Z,97103.28
2022-11-15T21:47:46.392Z,97103.50
2022-11-15T21:50:13.865Z,97089.53
2022-11-15T21:52:40.827Z,97089.69
2022-11-15T21:55:08.239Z,97086.66
2022-11-15T21:57:34.849Z,97088.59
2022-11-15T22:00:20.003Z,97085.28
2022-11-15T22:02:46.554Z,97079.69
2022-11-15T22:05:13.129Z,97085.38
2022-11-15T22:07:39.747Z,97077.69
2022-11-15T22:10:07.047Z,97072.00
2022-11-15T22:12:33.577Z,97070.22
2022-11-15T22:15:00.216Z,97073.81
2022-11-15T22:17:46.813Z,97052.66
2022-11-15T22:20:37.801Z,97051.84
2022-11-15T22:23:00.233Z,97048.16
2022-11-15T22:25:26.870Z,97041.00
2022-11-15T22:27:53.946Z,97031.06
2022-11-15T22:30:21.232Z,97043.47
2022-11-15T22:32:47.899Z,97045.59
2022-11-15T22:35:14.586Z,97037.31
2022-11-15T22:37:41.327Z,97039.94
2022-11-15T22:40:08.533Z,97025.50
2022-11-15T22:42:35.135Z,97037.81
2022-11-15T22:45:01.710Z,97035.22
2022-11-15T22:47:28.238Z,97031.72
2022-11-15T22:49:54.789Z,97039.78
2022-11-15T22:52:21.406Z,97035.53
2022-11-15T22:54:48.048Z,97033.50
2022-11-15T22:57:14.656Z,97036.63
2022-11-15T22:59:42.469Z,97042.34
2022-11-15T23:02:09.119Z,97036.94
2022-11-15T23:04:35.876Z,97037.50
2022-11-15T23:07:02.468Z,97032.34
2022-11-15T23:09:29.062Z,97037.16
2022-11-15T23:12:14.162Z,97037.69
2022-11-15T23:14:40.809Z,97047.22
2022-11-15T23:17:07.368Z,97043.75
2022-11-15T23:19:33.975Z,97048.63
2022-11-15T23:22:19.251Z,97035.88
2022-11-15T23:24:45.809Z,97034.41
2022-11-15T23:27:15.380Z,97036.53
2022-11-15T23:30:00.955Z,97028.25
2022-11-15T23:32:45.763Z,97018.28
2022-11-15T23:35:12.569Z,97021.31
2022-11-15T23:37:39.285Z,97007.41
2022-11-15T23:40:06.791Z,97014.94
2022-11-15T23:42:33.387Z,97018.25
2022-11-15T23:44:59.950Z,97007.63
2022-11-15T23:47:26.498Z,97018.34
2022-11-15T23:49:53.050Z,97013.47
2022-11-15T23:52:19.679Z,97017.28
2022-11-15T23:54:46.240Z,97010.03
2022-11-15T23:57:12.940Z,97004.91
2022-11-15T23:59:45.853Z,97000.63
